This demonstration page uses our WeatherBlox Daily Observations layout. Learn more.

38.89511, -77.03637

Hourly Observations for July 31, 2019

Temp ( °F °C ) Dew Point ( °F °C ) Humidity (%) Winds ( mph kmh ) Pressure ( in mb ) Visibility ( mi km ) Precip ( " mm )
12:52 am 00:52 Mostly Cloudy 78 25.6 64 17.8 62 62 SW 5 7 30 1016 10 16.09344 0 0
1:52 am 01:52 Mostly Cloudy 76 24.4 65 18.3 69 69 S 6 9 30 1016 10 16.09344 0 0
2:52 am 02:52 Cloudy 76 24.4 65 18.3 69 69 SW 7 11 30 1016 10 16.09344 0 0
3:52 am 03:52 Mostly Cloudy 75 23.9 65 18.3 71 71 SW 5 7 30 1016 10 16.09344 0 0
4:52 am 04:52 Cloudy 76 24.4 66 18.9 72 72 WSW 5 7 30 1016 10 16.09344 0 0
5:52 am 05:52 Mostly Cloudy 76 24.4 66 18.9 72 72 WSW 5 7 30 1016 10 16.09344 0 0
6:52 am 06:52 Mostly Cloudy 75 23.9 66 18.9 74 74 VRB 3 6 30 1016 10 16.09344 0 0
7:52 am 07:52 Cloudy 77 25 66 18.9 69 69 Calm 30.03 1017 10 16.09344 0 0
8:52 am 08:52 Cloudy 80 26.7 67 19.4 64 64 VRB 3 6 30.03 1017 10 16.09344 0 0
9:52 am 09:52 Cloudy 83 28.3 67 19.4 59 59 N 8 13 30.03 1017 10 16.09344 0 0
10:52 am 10:52 Mostly Cloudy 85 29.4 67 19.4 55 55 VRB 6 9 30.03 1017 10 16.09344 0 0
11:52 am 11:52 Cloudy 85 29.4 66 18.9 53 53 NNW 7 11 30.03 1017 10 16.09344 0 0
12:52 pm 12:52 Cloudy 84 28.9 66 18.9 55 55 NW 9 15 30.06 1018 10 16.09344 0 0
1:52 pm 13:52 Cloudy 86 30 69 20.6 57 57 NNW 8 13 30.03 1017 10 16.09344 0 0
2:52 pm 14:52 Cloudy 88 31.1 66 18.9 48 48 NNE 7 11 30 1016 10 16.09344 0 0
3:52 pm 15:52 Mostly Cloudy 87 30.6 69 20.6 55 55 NNW 10 17 30 1016 10 16.09344 0 0
4:52 pm 16:52 Mostly Cloudy 90 32.2 66 18.9 45 45 NNW 12 19 29.97 1015 10 16.09344 0 0
5:52 pm 17:52 Mostly Cloudy 85 29.4 65 18.3 51 51 NW 9 15 30 1016 10 16.09344 0 0
6:52 pm 18:52 Mostly Cloudy 82 27.8 64 17.8 55 55 NW 8 13 30 1016 10 16.09344 0 0
7:52 pm 19:52 Mostly Cloudy with Light Rain 78 25.6 70 21.1 76 76 SSE 8 13 30.03 1017 10 16.09344 0.01 0.254
8:52 pm 20:52 Mostly Cloudy 78 25.6 68 20 71 71 SW 6 9 30 1016 10 16.09344 0.001 0.001
9:52 pm 21:52 Mostly Cloudy 77 25 68 20 74 74 SW 7 11 30.03 1017 10 16.09344 0 0
10:52 pm 22:52 Mostly Cloudy 75 23.9 68 20 79 79 SSW 7 11 30.06 1018 10 16.09344 0 0
11:52 pm 23:52 Mostly Cloudy 75 23.9 68 20 79 79 SW 6 9 30.03 1017 10 16.09344 0 0

Powered by AerisWeather